Time;durP1;ratioP1;P1;durP2;ratioP2;P2;SDS_P1;SDS_P2;PMS_P1;PMS_P2;Temp;Humidity;BMP_temperature;BMP_pressure;BME280_temperature;BME280_humidity;BME280_pressure;Samples;Min_cycle;Max_cycle;Signal;HPM_P1;HPM_P2
2021/04/21 00:00:31;;;;;;;13.77;10.13;;;7.30;99.90;;;;;;5032567;28;20198;-70
2021/04/21 00:02:57;;;;;;;13.60;9.90;;;7.40;99.90;;;;;;5032286;28;20254;-70
2021/04/21 00:05:23;;;;;;;12.93;9.60;;;7.30;99.90;;;;;;5032489;28;20309;-70
2021/04/21 00:07:49;;;;;;;14.07;10.63;;;7.30;99.90;;;;;;5032319;28;20202;-71
2021/04/21 00:10:15;;;;;;;13.37;9.87;;;7.30;99.90;;;;;;5015850;28;20217;-70
2021/04/21 00:12:40;;;;;;;13.80;10.73;;;7.30;99.90;;;;;;5032101;28;20213;-70
2021/04/21 00:15:11;;;;;;;15.03;10.30;;;7.30;99.90;;;;;;5032153;28;20631;-70
2021/04/21 00:17:38;;;;;;;14.47;10.40;;;7.20;99.90;;;;;;5031960;28;20181;-70
2021/04/21 00:20:04;;;;;;;15.10;10.07;;;7.10;99.90;;;;;;5031968;28;20217;-70
2021/04/21 00:22:30;;;;;;;11.07;9.77;;;7.10;99.90;;;;;;5031942;28;20175;-70
2021/04/21 00:24:56;;;;;;;14.63;10.33;;;7.10;99.90;;;;;;5031944;28;20175;-70
2021/04/21 00:27:24;;;;;;;12.57;10.63;;;7.10;99.90;;;;;;5031645;28;20207;-70
2021/04/21 00:29:51;;;;;;;15.07;10.47;;;7.10;99.90;;;;;;5031773;28;20187;-71
2021/04/21 00:32:17;;;;;;;14.43;10.70;;;7.00;99.90;;;;;;5015200;28;20639;-71
2021/04/21 00:34:43;;;;;;;13.83;10.57;;;7.00;99.90;;;;;;5031827;28;20190;-70
2021/04/21 00:37:08;;;;;;;11.60;10.17;;;6.90;99.90;;;;;;5031551;28;20171;-70
2021/04/21 00:39:34;;;;;;;14.70;11.23;;;6.90;99.90;;;;;;5031710;28;20261;-70
2021/04/21 00:42:34;;;;;;;13.83;10.90;;;6.90;99.90;;;;;;5031839;28;20581;-70
2021/04/21 00:45:21;;;;;;;14.07;11.10;;;6.90;99.90;;;;;;5032984;28;20183;-70
2021/04/21 00:48:05;;;;;;;13.63;11.00;;;6.90;99.90;;;;;;5031640;28;20757;-71
2021/04/21 00:50:47;;;;;;;14.07;11.00;;;6.80;99.90;;;;;;5031859;28;20181;-71
2021/04/21 00:53:31;;;;;;;15.60;12.37;;;6.80;99.90;;;;;;5031495;28;20175;-71
2021/04/21 00:56:02;;;;;;;15.77;11.70;;;6.70;99.90;;;;;;5033341;28;20201;-70
2021/04/21 00:58:54;;;;;;;15.93;11.87;;;6.70;99.90;;;;;;5032472;28;20195;-70
2021/04/21 01:01:20;;;;;;;15.03;11.43;;;6.70;99.90;;;;;;5032413;28;20177;-71
2021/04/21 01:03:46;;;;;;;13.47;10.67;;;6.70;99.90;;;;;;5031510;28;20590;-70
2021/04/21 01:06:14;;;;;;;14.73;11.37;;;6.60;99.90;;;;;;5031101;28;20190;-70
2021/04/21 01:08:44;;;;;;;13.83;11.43;;;6.70;99.90;;;;;;5030385;28;20207;-70
2021/04/21 01:11:27;;;;;;;16.20;11.93;;;6.60;99.90;;;;;;5031346;28;20555;-70
2021/04/21 01:13:55;;;;;;;13.00;10.70;;;6.60;99.90;;;;;;5031605;28;20536;-70
2021/04/21 01:16:24;;;;;;;16.10;11.73;;;6.60;99.90;;;;;;5030779;28;20175;-70
2021/04/21 01:18:51;;;;;;;13.53;10.93;;;6.50;99.90;;;;;;5030887;28;20202;-70
2021/04/21 01:21:22;;;;;;;14.30;11.60;;;6.50;99.90;;;;;;5030972;28;20177;-71
2021/04/21 01:24:15;;;;;;;13.50;10.63;;;6.50;99.90;;;;;;5014467;28;20638;-70
2021/04/21 01:26:55;;;;;;;14.43;10.97;;;6.40;99.90;;;;;;5030811;28;20662;-71
2021/04/21 01:29:25;;;;;;;14.37;11.37;;;6.40;99.90;;;;;;5014478;28;20203;-71
2021/04/21 01:31:55;;;;;;;13.17;11.10;;;6.30;99.90;;;;;;5014547;28;20175;-71
2021/04/21 01:34:22;;;;;;;13.57;11.20;;;6.30;99.90;;;;;;5031270;28;20631;-71
2021/04/21 01:36:47;;;;;;;15.23;11.17;;;6.20;99.90;;;;;;5030815;28;20474;-72
2021/04/21 01:39:13;;;;;;;14.97;11.37;;;6.30;99.90;;;;;;5014224;28;20206;-70
2021/04/21 01:41:40;;;;;;;17.10;11.23;;;6.20;99.90;;;;;;5014293;28;20208;-70
2021/04/21 01:44:10;;;;;;;15.30;11.23;;;6.20;99.90;;;;;;5030738;28;20225;-70
2021/04/21 01:46:40;;;;;;;14.37;11.23;;;6.20;99.90;;;;;;5030642;28;20205;-71
2021/04/21 01:49:21;;;;;;;15.03;11.40;;;6.20;99.90;;;;;;5030480;28;20191;-70
2021/04/21 01:51:47;;;;;;;18.13;11.60;;;6.20;99.90;;;;;;5031902;28;20177;-70
2021/04/21 01:54:14;;;;;;;12.73;11.03;;;6.10;99.90;;;;;;5030585;28;20584;-70
2021/04/21 01:56:49;;;;;;;14.70;10.70;;;6.10;99.90;;;;;;5030547;28;20170;-71
2021/04/21 01:59:29;;;;;;;14.70;11.10;;;6.00;99.90;;;;;;5030528;28;20190;-71
2021/04/21 02:02:06;;;;;;;14.93;10.93;;;6.10;99.90;;;;;;5030679;28;20207;-71
2021/04/21 02:04:52;;;;;;;13.83;11.13;;;6.10;99.90;;;;;;5030614;28;20296;-71
2021/04/21 02:07:41;;;;;;;11.87;10.40;;;6.10;99.90;;;;;;5030169;28;20274;-71
2021/04/21 02:10:27;;;;;;;13.93;10.33;;;6.00;99.90;;;;;;5030460;28;20202;-70
2021/04/21 02:13:05;;;;;;;14.10;10.57;;;6.00;99.90;;;;;;5030866;28;20175;-70
2021/04/21 02:15:36;;;;;;;16.27;10.27;;;5.90;99.90;;;;;;5031600;28;20256;-71
2021/04/21 02:18:27;;;;;;;13.53;10.67;;;5.90;99.90;;;;;;5030346;28;20647;-72
2021/04/21 02:21:17;;;;;;;14.03;10.27;;;5.80;99.90;;;;;;4999228;28;20206;-70
2021/04/21 02:23:52;;;;;;;15.07;10.73;;;5.80;99.90;;;;;;5034230;28;20265;-70
2021/04/21 02:26:39;;;;;;;14.20;11.17;;;5.80;99.90;;;;;;5017584;28;20181;-70
2021/04/21 02:29:15;;;;;;;13.60;11.13;;;5.80;99.90;;;;;;5034111;28;20221;-70
2021/04/21 02:32:06;;;;;;;15.10;10.97;;;5.70;99.90;;;;;;5034185;28;20302;-70
2021/04/21 02:34:33;;;;;;;13.83;10.27;;;5.70;99.90;;;;;;5034727;28;20690;-70
2021/04/21 02:37:07;;;;;;;13.93;11.10;;;5.70;99.90;;;;;;5033266;28;20185;-70
2021/04/21 02:39:50;;;;;;;12.80;10.40;;;5.70;99.90;;;;;;5033915;28;20685;-70
2021/04/21 02:42:53;;;;;;;13.50;10.27;;;5.70;99.90;;;;;;5035523;28;20177;-70
2021/04/21 02:45:25;;;;;;;13.80;10.50;;;5.60;99.90;;;;;;5035093;28;20214;-70
2021/04/21 02:48:39;;;;;;;15.77;11.10;;;5.60;99.90;;;;;;5033673;28;20222;-70
2021/04/21 02:51:13;;;;;;;13.63;10.63;;;5.50;99.90;;;;;;4989016;28;20701;-70
2021/04/21 02:53:59;;;;;;;13.27;10.30;;;5.50;99.90;;;;;;5017190;28;20185;-70
2021/04/21 02:56:31;;;;;;;13.10;10.77;;;5.40;99.90;;;;;;5033469;28;20241;-70
2021/04/21 02:59:22;;;;;;;13.93;10.90;;;5.40;99.90;;;;;;5039615;28;20551;-70
2021/04/21 03:02:04;;;;;;;12.73;10.17;;;5.40;99.90;;;;;;5053516;28;20211;-70
2021/04/21 03:04:50;;;;;;;13.90;10.97;;;5.40;99.90;;;;;;5038329;28;20201;-70
2021/04/21 03:07:26;;;;;;;13.77;10.93;;;5.30;99.90;;;;;;5038494;28;20197;-70
2021/04/21 03:09:55;;;;;;;14.53;10.40;;;5.30;99.90;;;;;;5037833;28;20192;-70
2021/04/21 03:12:24;;;;;;;15.17;10.63;;;5.30;99.90;;;;;;5053472;28;20173;-70
2021/04/21 03:14:51;;;;;;;13.77;11.33;;;5.20;99.90;;;;;;5053353;28;20265;-70
2021/04/21 03:17:16;;;;;;;16.40;10.63;;;5.20;99.90;;;;;;5036691;28;20171;-70
2021/04/21 03:19:47;;;;;;;13.97;10.80;;;5.30;99.90;;;;;;5019926;28;20564;-70
2021/04/21 03:22:14;;;;;;;17.07;11.60;;;5.20;99.90;;;;;;5037309;28;20224;-70
2021/04/21 03:24:44;;;;;;;17.13;12.03;;;5.20;99.90;;;;;;5018460;28;20597;-70
2021/04/21 03:27:09;;;;;;;13.37;11.23;;;5.30;99.90;;;;;;5016964;28;20278;-70
2021/04/21 03:29:37;;;;;;;13.93;11.17;;;5.20;99.90;;;;;;5016748;28;20320;-70
2021/04/21 03:32:05;;;;;;;17.37;12.03;;;5.10;99.90;;;;;;5016326;28;20171;-69
2021/04/21 03:34:31;;;;;;;15.17;10.63;;;5.10;99.90;;;;;;5000318;28;20563;-69
2021/04/21 03:36:56;;;;;;;15.07;11.03;;;5.00;99.90;;;;;;5016420;28;20732;-70
2021/04/21 03:39:22;;;;;;;16.17;11.20;;;5.00;99.90;;;;;;5016410;28;20206;-69
2021/04/21 03:41:49;;;;;;;17.33;11.50;;;5.00;99.90;;;;;;5016286;28;20178;-69
2021/04/21 03:44:14;;;;;;;17.37;12.50;;;5.00;99.90;;;;;;5032833;28;20194;-70
2021/04/21 03:46:41;;;;;;;16.17;11.60;;;5.10;99.90;;;;;;4999646;28;20673;-70
2021/04/21 03:49:07;;;;;;;15.03;11.37;;;5.10;99.90;;;;;;5032615;28;20691;-70
2021/04/21 03:51:32;;;;;;;16.30;12.60;;;5.00;99.90;;;;;;5016361;28;20191;-70
2021/04/21 03:53:58;;;;;;;13.90;10.83;;;4.90;99.90;;;;;;5016123;28;20237;-70
2021/04/21 03:56:24;;;;;;;14.20;11.37;;;4.90;99.90;;;;;;5015839;28;20194;-70
2021/04/21 03:58:52;;;;;;;14.93;12.07;;;4.90;99.90;;;;;;5033607;28;20240;-70
2021/04/21 04:01:18;;;;;;;17.17;11.97;;;4.90;99.90;;;;;;4999998;28;20707;-70
2021/04/21 04:03:47;;;;;;;15.37;11.60;;;4.90;99.90;;;;;;5016068;28;20551;-70
2021/04/21 04:06:16;;;;;;;14.70;11.67;;;4.90;99.90;;;;;;5016065;28;20288;-69
2021/04/21 04:08:46;;;;;;;15.13;11.57;;;4.80;99.90;;;;;;4999541;28;20652;-69
2021/04/21 04:11:13;;;;;;;16.17;11.63;;;4.80;99.90;;;;;;5032344;28;20190;-69
2021/04/21 04:13:41;;;;;;;18.47;12.17;;;4.80;99.90;;;;;;5032222;28;20344;-69
2021/04/21 04:16:07;;;;;;;15.27;11.57;;;4.90;99.90;;;;;;5015919;28;20201;-70
2021/04/21 04:18:32;;;;;;;15.03;11.87;;;4.90;99.90;;;;;;5031757;28;20686;-70
2021/04/21 04:20:58;;;;;;;16.13;12.33;;;4.80;99.90;;;;;;5006710;28;20187;-70
2021/04/21 04:23:23;;;;;;;16.07;12.33;;;4.80;99.90;;;;;;5018630;28;20268;-70
2021/04/21 04:25:50;;;;;;;19.40;13.30;;;4.70;99.90;;;;;;5035439;28;20182;-70
2021/04/21 04:28:16;;;;;;;18.23;12.97;;;4.70;99.90;;;;;;5051758;28;20222;-70
2021/04/21 04:30:41;;;;;;;18.47;13.40;;;4.70;99.90;;;;;;5035364;28;20228;-70
2021/04/21 04:33:08;;;;;;;20.67;14.10;;;4.70;99.90;;;;;;5051768;28;20224;-70
2021/04/21 04:35:34;;;;;;;19.83;13.57;;;4.70;99.90;;;;;;5051646;28;20260;-70
2021/04/21 04:38:01;;;;;;;17.90;13.53;;;4.70;99.90;;;;;;5051728;28;20185;-70
2021/04/21 04:40:27;;;;;;;17.30;13.27;;;4.70;99.90;;;;;;5051608;28;20603;-70
2021/04/21 04:42:52;;;;;;;17.77;13.43;;;4.70;99.90;;;;;;5051814;28;20218;-70
2021/04/21 04:45:18;;;;;;;19.80;13.80;;;4.80;99.90;;;;;;5051688;28;20189;-70
2021/04/21 04:47:45;;;;;;;19.80;14.33;;;4.80;99.90;;;;;;5018020;28;20206;-70
2021/04/21 04:50:20;;;;;;;20.07;14.10;;;4.90;99.90;;;;;;5051261;28;20197;-70
2021/04/21 04:52:47;;;;;;;18.63;13.93;;;5.00;99.90;;;;;;5035110;28;20549;-73
2021/04/21 04:55:14;;;;;;;20.43;14.00;;;5.00;99.90;;;;;;5053555;28;20204;-74
2021/04/21 04:57:42;;;;;;;21.13;14.00;;;5.00;99.90;;;;;;5020988;28;20556;-73
2021/04/21 05:00:12;;;;;;;20.10;13.77;;;5.00;99.90;;;;;;5051931;28;20248;-74
2021/04/21 05:02:42;;;;;;;22.13;15.20;;;5.10;99.90;;;;;;5052131;28;20551;-73
2021/04/21 05:05:08;;;;;;;20.93;14.80;;;5.10;99.90;;;;;;5019430;28;20182;-73
2021/04/21 05:08:25;;;;;;;19.13;14.40;;;5.20;99.90;;;;;;5035418;28;20200;-73
2021/04/21 05:11:08;;;;;;;18.47;13.63;;;5.20;99.90;;;;;;5018168;28;20189;-74
2021/04/21 05:13:50;;;;;;;15.97;13.43;;;5.30;99.90;;;;;;5052024;28;20253;-74
2021/04/21 05:16:25;;;;;;;23.20;14.40;;;5.40;99.90;;;;;;5018375;28;20201;-72
2021/04/21 05:19:08;;;;;;;22.70;14.93;;;5.50;99.90;;;;;;5052335;28;20589;-72
2021/04/21 05:22:04;;;;;;;19.67;14.87;;;5.60;99.90;;;;;;5017919;28;20183;-72
2021/04/21 05:25:01;;;;;;;18.27;14.33;;;5.70;99.90;;;;;;5031016;28;20182;-74
2021/04/21 05:27:26;;;;;;;19.73;14.47;;;5.80;99.90;;;;;;5030910;28;20242;-72
2021/04/21 05:30:19;;;;;;;20.63;16.17;;;5.90;99.90;;;;;;5031859;28;20235;-72
2021/04/21 05:33:09;;;;;;;23.23;14.93;;;6.00;99.90;;;;;;5030976;28;20175;-72
2021/04/21 05:36:05;;;;;;;20.63;14.73;;;6.10;99.90;;;;;;5032117;28;20175;-72
2021/04/21 05:38:52;;;;;;;18.97;13.97;;;6.20;99.90;;;;;;5032123;28;20210;-72
2021/04/21 05:41:38;;;;;;;21.30;15.90;;;6.40;99.90;;;;;;5031938;28;20181;-72
2021/04/21 05:44:32;;;;;;;19.30;15.20;;;6.50;99.90;;;;;;5030966;28;20177;-71
2021/04/21 05:47:22;;;;;;;19.40;14.97;;;6.70;99.90;;;;;;5048549;28;20224;-70
2021/04/21 05:50:07;;;;;;;18.17;13.57;;;6.80;99.90;;;;;;5038819;28;20187;-72
2021/04/21 05:52:51;;;;;;;19.53;13.77;;;7.10;99.90;;;;;;5044785;28;20189;-72
2021/04/21 05:55:28;;;;;;;17.70;13.17;;;7.60;99.90;;;;;;5043605;28;20200;-72
2021/04/21 05:58:07;;;;;;;16.57;12.13;;;8.00;99.90;;;;;;5040402;28;20186;-72
2021/04/21 06:00:51;;;;;;;15.47;12.07;;;8.40;99.90;;;;;;5034907;28;20633;-72
2021/04/21 06:03:17;;;;;;;15.87;13.27;;;8.90;99.90;;;;;;5046587;28;20186;-71
2021/04/21 06:05:43;;;;;;;17.90;12.37;;;9.20;99.90;;;;;;5028882;28;20180;-71
2021/04/21 06:08:12;;;;;;;17.23;12.23;;;9.40;99.90;;;;;;5021188;28;20211;-71
2021/04/21 06:10:38;;;;;;;16.87;12.10;;;9.50;99.90;;;;;;5039361;28;20266;-71
2021/04/21 06:13:03;;;;;;;19.63;12.13;;;9.60;99.90;;;;;;5028198;28;20218;-71
2021/04/21 06:15:35;;;;;;;17.07;12.37;;;9.80;99.90;;;;;;5042612;28;20185;-73
2021/04/21 06:18:05;;;;;;;18.93;12.60;;;10.00;99.90;;;;;;5041556;28;20183;-71
2021/04/21 06:20:34;;;;;;;14.97;11.87;;;10.20;99.90;;;;;;5054727;28;20201;-72
2021/04/21 06:23:12;;;;;;;16.57;11.57;;;10.30;99.90;;;;;;5035548;28;20290;-71
2021/04/21 06:25:42;;;;;;;16.13;10.60;;;10.50;99.90;;;;;;5055768;28;20191;-72
2021/04/21 06:28:09;;;;;;;16.20;10.77;;;10.60;99.90;;;;;;5013537;28;20212;-71
2021/04/21 06:30:35;;;;;;;17.03;11.43;;;10.70;99.90;;;;;;5037685;28;20196;-71
2021/04/21 06:33:02;;;;;;;16.50;11.80;;;11.00;99.90;;;;;;5053896;28;20686;-70
2021/04/21 06:35:29;;;;;;;19.63;11.50;;;11.30;99.90;;;;;;5037615;28;20177;-70
2021/04/21 06:37:55;;;;;;;18.50;11.67;;;11.30;99.90;;;;;;5037341;28;20182;-70
2021/04/21 06:40:24;;;;;;;18.03;11.73;;;11.30;99.90;;;;;;5020516;28;20201;-70
2021/04/21 06:42:49;;;;;;;17.63;11.97;;;11.60;99.90;;;;;;5053649;28;20609;-70
2021/04/21 06:45:22;;;;;;;16.07;12.07;;;11.70;99.90;;;;;;5053423;28;20182;-70
2021/04/21 06:47:47;;;;;;;17.57;12.33;;;12.10;99.90;;;;;;5037111;28;20206;-70
2021/04/21 06:50:13;;;;;;;19.97;10.87;;;12.60;99.90;;;;;;5053358;28;20205;-70
2021/04/21 06:52:41;;;;;;;20.50;11.37;;;13.10;99.90;;;;;;5053559;28;20174;-70
2021/04/21 06:55:07;;;;;;;13.17;10.10;;;13.50;99.90;;;;;;5052576;28;20340;-70
2021/04/21 06:57:33;;;;;;;16.27;9.93;;;13.70;99.90;;;;;;5047677;28;20190;-70
2021/04/21 07:00:15;;;;;;;15.07;10.40;;;14.30;99.90;;;;;;5034031;28;20210;-70
2021/04/21 07:02:43;;;;;;;13.20;10.07;;;14.90;99.90;;;;;;5036715;28;20289;-70
2021/04/21 07:05:47;;;;;;;15.63;10.40;;;15.20;99.90;;;;;;5053322;28;20256;-70
2021/04/21 07:08:28;;;;;;;16.67;10.13;;;15.50;99.90;;;;;;5013560;28;20678;-72
2021/04/21 07:10:57;;;;;;;18.20;8.67;;;15.00;99.90;;;;;;5013166;28;20645;-73
2021/04/21 07:13:30;;;;;;;14.23;9.50;;;15.00;99.90;;;;;;5016807;28;20191;-73
2021/04/21 07:15:59;;;;;;;16.87;9.73;;;15.30;99.90;;;;;;5023854;28;20186;-72
2021/04/21 07:18:29;;;;;;;18.97;10.33;;;15.30;99.90;;;;;;5036774;28;20268;-72
2021/04/21 07:20:58;;;;;;;21.27;10.47;;;15.60;99.90;;;;;;5053172;28;20254;-72
2021/04/21 07:23:24;;;;;;;18.30;9.83;;;15.70;99.90;;;;;;5036537;28;20189;-73
2021/04/21 07:25:51;;;;;;;20.37;10.63;;;15.70;99.90;;;;;;5052790;28;20190;-73
2021/04/21 07:28:17;;;;;;;20.57;11.73;;;15.30;99.90;;;;;;5034569;28;20201;-72
2021/04/21 07:30:43;;;;;;;16.77;10.23;;;15.20;99.90;;;;;;5052841;28;20186;-72
2021/04/21 07:33:09;;;;;;;15.13;8.60;;;15.20;99.90;;;;;;5052750;28;20223;-72
2021/04/21 07:35:34;;;;;;;14.07;9.20;;;15.20;99.90;;;;;;5036597;28;20228;-71
2021/04/21 07:38:02;;;;;;;14.43;8.77;;;15.20;99.90;;;;;;5032448;28;20598;-73
2021/04/21 07:40:36;;;;;;;15.30;8.67;;;15.20;99.90;;;;;;5017167;28;20198;-72
2021/04/21 07:43:04;;;;;;;13.80;8.43;;;;;;;;;;5019870;28;20214;-72
2021/04/21 07:45:46;;;;;;;12.23;7.67;;;;;;;;;;5052355;28;20182;-72
2021/04/21 07:48:33;;;;;;;12.40;7.40;;;15.20;99.90;;;;;;5045618;28;20210;-73
2021/04/21 07:51:26;;;;;;;11.67;7.20;;;15.20;99.90;;;;;;5043429;28;20202;-73
2021/04/21 07:53:51;;;;;;;12.00;6.63;;;15.20;99.90;;;;;;5053530;28;20268;-73
2021/04/21 07:56:18;;;;;;;8.87;6.47;;;15.30;99.90;;;;;;5051919;28;20201;-72
2021/04/21 07:58:43;;;;;;;9.33;6.47;;;15.50;99.90;;;;;;5032093;28;20217;-72
2021/04/21 08:01:10;;;;;;;12.80;6.57;;;;;;;;;;5025648;28;20182;-75
2021/04/21 08:03:36;;;;;;;12.37;6.50;;;;;;;;;;5052515;28;20182;-72
2021/04/21 08:06:03;;;;;;;9.30;6.10;;;;;;;;;;5051711;28;20247;-72
2021/04/21 08:08:30;;;;;;;9.63;6.43;;;;;;;;;;5050255;28;20217;-73
2021/04/21 08:10:56;;;;;;;11.60;7.00;;;16.00;99.90;;;;;;5032182;28;20689;-72
2021/04/21 08:13:45;;;;;;;12.10;6.63;;;16.20;99.90;;;;;;5031499;28;20181;-72
2021/04/21 08:16:27;;;;;;;11.47;7.13;;;;;;;;;;5014694;28;20193;-72
2021/04/21 08:18:54;;;;;;;12.47;7.07;;;16.40;99.90;;;;;;5015436;28;20215;-72
2021/04/21 08:21:40;;;;;;;9.23;6.87;;;;;;;;;;5032063;28;20182;-71
2021/04/21 08:24:06;;;;;;;10.43;6.30;;;;;;;;;;5033285;28;20183;-71
2021/04/21 08:26:34;;;;;;;9.53;6.47;;;17.10;99.90;;;;;;5031830;28;20187;-72
2021/04/21 08:29:00;;;;;;;11.30;7.10;;;17.10;99.90;;;;;;5015522;28;20202;-72
2021/04/21 08:31:28;;;;;;;12.80;6.47;;;17.00;99.90;;;;;;5018582;28;20237;-73
2021/04/21 08:33:55;;;;;;;9.50;5.60;;;17.20;99.90;;;;;;5050148;28;20178;-73
2021/04/21 08:36:21;;;;;;;11.33;6.20;;;17.20;99.90;;;;;;5020889;28;20233;-73
2021/04/21 08:38:47;;;;;;;9.10;5.63;;;17.30;99.90;;;;;;5035858;28;20199;-73
2021/04/21 08:41:15;;;;;;;11.10;6.13;;;17.30;99.90;;;;;;5030049;28;20198;-73
2021/04/21 08:43:40;;;;;;;9.63;6.20;;;17.50;99.90;;;;;;5033959;28;20266;-75
2021/04/21 08:46:06;;;;;;;10.33;6.20;;;17.60;99.90;;;;;;5014807;28;20274;-73
2021/04/21 08:48:32;;;;;;;7.73;5.33;;;17.60;99.90;;;;;;5047437;28;20213;-73
2021/04/21 08:50:58;;;;;;;7.93;5.37;;;17.60;99.90;;;;;;5017798;28;20185;-71
2021/04/21 08:53:23;;;;;;;7.87;5.13;;;17.70;99.90;;;;;;5014034;28;20201;-72
2021/04/21 08:55:49;;;;;;;6.67;4.43;;;18.00;99.90;;;;;;5027762;28;20182;-72
2021/04/21 08:58:15;;;;;;;8.07;4.90;;;18.30;99.90;;;;;;5050874;28;20178;-72
2021/04/21 09:00:41;;;;;;;7.67;4.00;;;18.30;99.90;;;;;;5026882;28;20237;-72
2021/04/21 09:03:07;;;;;;;7.53;4.40;;;18.10;99.10;;;;;;5031201;28;20179;-72
2021/04/21 09:05:32;;;;;;;5.73;4.50;;;18.00;99.90;;;;;;5031233;28;20538;-72
2021/04/21 09:07:58;;;;;;;9.20;4.83;;;18.10;99.90;;;;;;5031019;28;20198;-71
2021/04/21 09:10:23;;;;;;;7.63;3.80;;;18.10;99.90;;;;;;5014435;28;20630;-72
2021/04/21 09:12:49;;;;;;;8.53;4.53;;;18.50;99.90;;;;;;5040031;28;20841;-71
2021/04/21 09:15:15;;;;;;;6.60;4.63;;;18.50;97.70;;;;;;5052151;28;20625;-71
2021/04/21 09:17:48;;;;;;;6.43;4.63;;;18.80;99.90;;;;;;5034400;28;20182;-72
2021/04/21 09:20:15;;;;;;;7.27;4.70;;;19.00;99.90;;;;;;5051976;28;20222;-71
2021/04/21 09:23:03;;;;;;;8.53;5.10;;;18.90;99.50;;;;;;5034385;28;20182;-72
2021/04/21 09:25:37;;;;;;;6.63;4.37;;;19.00;98.20;;;;;;5049983;28;20212;-73
2021/04/21 09:28:03;;;;;;;8.40;4.90;;;19.20;98.00;;;;;;5045916;28;20293;-73
2021/04/21 09:30:29;;;;;;;6.47;5.03;;;19.70;95.40;;;;;;5050713;28;20195;-73
2021/04/21 09:32:56;;;;;;;6.93;4.73;;;19.80;94.90;;;;;;5049674;28;20189;-73
2021/04/21 09:35:24;;;;;;;6.97;4.97;;;20.50;93.70;;;;;;5050530;28;20585;-73
2021/04/21 09:37:54;;;;;;;6.10;4.70;;;20.80;92.50;;;;;;5050342;28;20186;-73
2021/04/21 09:40:41;;;;;;;8.73;4.90;;;20.50;92.20;;;;;;5014113;28;20198;-72
2021/04/21 09:43:11;;;;;;;7.27;5.17;;;20.60;92.70;;;;;;5042317;28;20195;-76
2021/04/21 09:45:42;;;;;;;6.23;4.83;;;20.50;93.60;;;;;;5030796;28;20183;-72
2021/04/21 09:48:09;;;;;;;8.67;5.50;;;20.00;92.60;;;;;;5033977;28;20685;-73
2021/04/21 09:50:36;;;;;;;6.90;5.10;;;19.70;91.60;;;;;;5034168;28;20538;-74
2021/04/21 09:53:22;;;;;;;7.10;5.50;;;19.60;94.00;;;;;;5034340;28;20182;-74
2021/04/21 09:56:04;;;;;;;9.10;6.00;;;19.80;92.30;;;;;;5036591;28;20178;-74
2021/04/21 09:58:41;;;;;;;9.97;6.10;;;19.90;93.10;;;;;;5019118;28;20251;-74
2021/04/21 10:01:26;;;;;;;9.80;5.83;;;20.40;95.20;;;;;;5034736;28;20671;-71
2021/04/21 10:04:08;;;;;;;7.53;5.80;;;20.10;91.50;;;;;;5030469;28;20620;-71
2021/04/21 10:06:33;;;;;;;7.20;5.80;;;19.80;94.40;;;;;;5030299;28;20213;-71
2021/04/21 10:08:59;;;;;;;7.37;5.93;;;19.70;94.00;;;;;;5013797;28;20352;-72
2021/04/21 10:11:25;;;;;;;7.23;5.43;;;19.50;92.10;;;;;;5017220;28;20673;-71
2021/04/21 10:13:52;;;;;;;6.57;5.00;;;19.20;91.30;;;;;;5039979;28;20642;-74
2021/04/21 10:16:18;;;;;;;9.37;5.83;;;19.00;93.80;;;;;;5033627;28;20638;-73
2021/04/21 10:18:44;;;;;;;7.20;5.27;;;19.20;94.40;;;;;;5033552;28;20305;-73
2021/04/21 10:21:10;;;;;;;7.77;4.67;;;19.30;94.00;;;;;;5030271;28;20191;-73
2021/04/21 10:23:36;;;;;;;7.33;4.90;;;19.40;90.80;;;;;;5014260;28;20225;-72
2021/04/21 10:26:05;;;;;;;7.57;5.27;;;19.00;92.00;;;;;;5014123;28;20206;-73
2021/04/21 10:28:32;;;;;;;6.10;5.17;;;19.00;92.80;;;;;;4997554;28;20246;-73
2021/04/21 10:30:58;;;;;;;10.37;5.73;;;19.30;95.30;;;;;;5030457;28;20175;-73
2021/04/21 10:33:25;;;;;;;8.17;5.53;;;19.20;94.40;;;;;;5031567;28;20674;-72
2021/04/21 10:35:51;;;;;;;10.30;5.73;;;19.20;95.40;;;;;;5014259;28;20195;-72
2021/04/21 10:38:16;;;;;;;8.60;6.43;;;19.20;96.20;;;;;;5013545;28;20594;-75
2021/04/21 10:40:42;;;;;;;11.50;6.97;;;19.40;94.20;;;;;;5016466;28;20538;-76
2021/04/21 10:43:07;;;;;;;9.47;6.50;;;19.50;94.20;;;;;;5026270;28;20213;-77
2021/04/21 10:45:46;;;;;;;8.23;6.17;;;19.50;95.00;;;;;;5033381;28;20575;-73
2021/04/21 10:48:27;;;;;;;8.53;6.40;;;19.40;93.50;;;;;;5017233;28;20560;-74
2021/04/21 10:50:53;;;;;;;8.40;6.43;;;19.10;94.00;;;;;;5039167;28;20213;-74
2021/04/21 10:53:23;;;;;;;9.13;6.20;;;19.00;96.30;;;;;;5037304;28;20221;-72
2021/04/21 10:55:48;;;;;;;9.57;7.43;;;19.10;96.70;;;;;;5032210;28;20190;-74
2021/04/21 10:58:14;;;;;;;10.23;6.37;;;19.10;95.10;;;;;;5036188;28;20182;-74
2021/04/21 11:00:47;;;;;;;10.00;6.17;;;19.00;94.80;;;;;;5036306;28;20240;-71
2021/04/21 11:03:25;;;;;;;8.20;5.90;;;18.90;94.10;;;;;;5037185;28;20170;-74
2021/04/21 11:06:02;;;;;;;11.17;6.20;;;18.90;94.00;;;;;;5034132;28;20186;-75
2021/04/21 11:08:29;;;;;;;10.17;6.30;;;18.70;93.80;;;;;;5029519;28;20280;-74
2021/04/21 11:11:03;;;;;;;7.73;6.13;;;18.50;93.90;;;;;;5052855;28;20175;-74
2021/04/21 11:13:34;;;;;;;9.50;6.60;;;18.40;96.10;;;;;;5036670;28;20175;-73
2021/04/21 11:16:00;;;;;;;9.23;6.17;;;18.70;96.40;;;;;;5053730;28;20261;-74
2021/04/21 11:18:33;;;;;;;8.40;5.80;;;19.00;96.10;;;;;;5053837;28;20194;-74
2021/04/21 11:21:00;;;;;;;11.60;5.67;;;19.10;95.00;;;;;;5054848;28;20559;-75
2021/04/21 11:23:45;;;;;;;10.93;5.83;;;19.20;95.00;;;;;;5036511;28;20178;-75
2021/04/21 11:26:22;;;;;;;7.13;5.47;;;19.10;94.90;;;;;;5053851;28;20557;-75
2021/04/21 11:29:00;;;;;;;8.67;5.47;;;19.20;93.30;;;;;;5053553;28;20209;-74
2021/04/21 11:31:48;;;;;;;8.93;6.23;;;19.30;94.60;;;;;;5053501;28;20235;-73
2021/04/21 11:34:17;;;;;;;8.90;6.17;;;19.10;96.30;;;;;;5053777;28;20612;-76
2021/04/21 11:36:47;;;;;;;9.57;6.37;;;19.20;93.50;;;;;;5050823;28;20189;-76
2021/04/21 11:39:13;;;;;;;8.73;7.07;;;19.20;94.50;;;;;;5041440;28;20198;-76
2021/04/21 11:41:46;;;;;;;11.33;6.20;;;18.90;94.00;;;;;;5034232;28;20669;-76
2021/04/21 11:44:49;;;;;;;11.03;7.13;;;18.90;95.30;;;;;;5052310;28;20178;-75
2021/04/21 11:47:42;;;;;;;11.53;7.30;;;19.30;96.10;;;;;;5052957;28;20659;-74
2021/04/21 11:50:16;;;;;;;11.03;7.47;;;19.60;94.90;;;;;;5035780;28;20256;-74
2021/04/21 11:52:53;;;;;;;8.33;7.17;;;20.00;97.10;;;;;;5052936;28;20213;-74
2021/04/21 11:55:40;;;;;;;8.67;7.47;;;20.10;95.80;;;;;;5036626;28;20213;-74
2021/04/21 11:58:14;;;;;;;10.67;6.93;;;20.10;95.80;;;;;;5038776;28;20185;-74
2021/04/21 12:01:15;;;;;;;9.50;8.27;;;20.10;95.80;;;;;;5019221;28;20189;-74
2021/04/21 12:03:45;;;;;;;11.70;8.27;;;20.10;95.70;;;;;;5052044;28;20665;-74
2021/04/21 12:06:16;;;;;;;10.27;7.37;;;19.70;95.00;;;;;;5032048;28;20532;-74
2021/04/21 12:08:51;;;;;;;10.67;7.27;;;19.90;95.40;;;;;;5034140;28;20644;-74
2021/04/21 12:11:28;;;;;;;11.73;8.23;;;19.60;93.20;;;;;;5015753;28;20182;-74
2021/04/21 12:13:54;;;;;;;11.10;7.50;;;19.70;95.10;;;;;;5033245;28;20185;-74
2021/04/21 12:16:22;;;;;;;8.63;7.50;;;19.60;96.50;;;;;;5030252;28;20244;-76
2021/04/21 12:18:52;;;;;;;13.03;7.07;;;19.60;95.50;;;;;;5027393;28;20297;-75
2021/04/21 12:21:17;;;;;;;10.73;7.53;;;19.90;96.80;;;;;;5046754;28;20674;-74
2021/04/21 12:23:44;;;;;;;11.73;7.67;;;20.00;96.00;;;;;;5047911;28;20754;-74
2021/04/21 12:26:27;;;;;;;9.70;7.70;;;19.90;94.30;;;;;;5041505;28;20190;-74
2021/04/21 12:28:53;;;;;;;10.80;8.07;;;19.80;95.10;;;;;;5029294;28;20210;-75
2021/04/21 12:31:20;;;;;;;10.67;7.17;;;19.50;94.90;;;;;;5049444;28;20550;-74
2021/04/21 12:33:46;;;;;;;11.87;8.27;;;19.30;94.40;;;;;;5035532;28;20638;-74
2021/04/21 12:36:11;;;;;;;10.30;8.00;;;18.90;95.10;;;;;;5053064;28;20239;-74
2021/04/21 12:38:37;;;;;;;11.40;7.83;;;18.80;94.00;;;;;;5038079;28;20587;-75
2021/04/21 12:41:04;;;;;;;12.33;8.30;;;18.70;95.40;;;;;;5015499;28;20194;-75
2021/04/21 12:43:31;;;;;;;9.60;7.57;;;18.90;96.30;;;;;;5015041;28;20560;-73
2021/04/21 12:46:14;;;;;;;9.03;7.10;;;19.30;96.90;;;;;;5031988;28;20175;-75
2021/04/21 12:48:47;;;;;;;9.90;7.20;;;19.30;95.10;;;;;;5031924;28;20206;-76
2021/04/21 12:51:17;;;;;;;10.17;7.30;;;18.90;95.40;;;;;;5035007;28;20260;-75
2021/04/21 12:53:43;;;;;;;8.77;7.27;;;18.40;94.70;;;;;;4998756;28;20179;-76
2021/04/21 12:56:10;;;;;;;9.80;6.60;;;18.20;96.60;;;;;;5015223;28;20674;-76
2021/04/21 12:58:38;;;;;;;8.87;6.63;;;18.50;96.60;;;;;;5001580;28;20293;-75
2021/04/21 13:01:18;;;;;;;11.47;7.20;;;18.80;96.80;;;;;;5031971;28;20572;-75
2021/04/21 13:04:00;;;;;;;9.27;6.70;;;18.90;96.00;;;;;;4999317;28;20174;-75
2021/04/21 13:06:37;;;;;;;7.20;6.37;;;18.80;97.10;;;;;;5014740;28;20672;-75